createdAt,value
2023-01-17T00:02:04.311Z,18.40
2023-01-17T00:05:25.544Z,18.80
2023-01-17T00:08:45.854Z,19.30
2023-01-17T00:11:48.127Z,18.73
2023-01-17T00:14:51.499Z,18.10
2023-01-17T00:17:54.137Z,18.33
2023-01-17T00:21:14.508Z,18.17
2023-01-17T00:24:35.255Z,18.50
2023-01-17T00:27:38.168Z,17.20
2023-01-17T00:30:40.426Z,17.53
2023-01-17T00:33:42.560Z,17.73
2023-01-17T00:36:44.749Z,17.10
2023-01-17T00:39:46.632Z,17.60
2023-01-17T00:42:48.925Z,17.63
2023-01-17T00:46:10.829Z,19.17
2023-01-17T00:49:31.936Z,17.17
2023-01-17T00:52:52.432Z,17.57
2023-01-17T00:56:13.521Z,17.90
2023-01-17T00:59:33.986Z,16.97
2023-01-17T01:02:55.373Z,17.87
2023-01-17T01:06:15.898Z,16.13
2023-01-17T01:09:36.871Z,15.87
2023-01-17T01:12:57.346Z,16.67
2023-01-17T01:16:24.208Z,17.17
2023-01-17T01:19:45.100Z,16.17
2023-01-17T01:23:06.485Z,16.80
2023-01-17T01:26:26.990Z,15.63
2023-01-17T01:29:48.036Z,16.53
2023-01-17T01:33:08.528Z,16.47
2023-01-17T01:36:10.934Z,16.90
2023-01-17T01:39:12.944Z,16.67
2023-01-17T01:42:16.346Z,16.60
2023-01-17T01:45:29.134Z,16.47
2023-01-17T01:48:39.768Z,15.53
2023-01-17T01:51:47.219Z,16.30
2023-01-17T01:54:58.613Z,16.00
2023-01-17T01:58:08.575Z,16.43
2023-01-17T02:01:11.104Z,15.93
2023-01-17T02:04:13.713Z,16.10
2023-01-17T02:07:25.512Z,16.87
2023-01-17T02:10:28.381Z,17.13
2023-01-17T02:13:31.445Z,15.67
2023-01-17T02:16:38.977Z,16.20
2023-01-17T02:19:43.968Z,16.63
2023-01-17T02:22:51.748Z,14.97
2023-01-17T02:26:30.867Z,16.07
2023-01-17T02:29:38.342Z,16.17
2023-01-17T02:32:56.799Z,17.80
2023-01-17T02:36:13.504Z,16.93
2023-01-17T02:39:28.305Z,17.00
2023-01-17T02:42:39.784Z,17.43
2023-01-17T02:45:42.261Z,17.97
2023-01-17T02:48:45.591Z,19.10
2023-01-17T02:51:55.260Z,19.50
2023-01-17T02:55:19.073Z,19.00
2023-01-17T02:58:34.426Z,19.20
2023-01-17T03:02:04.428Z,18.97
2023-01-17T03:05:20.198Z,18.63
2023-01-17T03:08:23.454Z,19.57
2023-01-17T03:11:27.756Z,19.00
2023-01-17T03:14:31.866Z,18.07
2023-01-17T03:17:34.248Z,19.13
2023-01-17T03:20:36.396Z,18.83
2023-01-17T03:23:38.832Z,16.97
2023-01-17T03:26:44.900Z,18.17
2023-01-17T03:29:47.133Z,19.87
2023-01-17T03:32:49.644Z,19.03
2023-01-17T03:35:52.860Z,19.43
2023-01-17T03:38:54.875Z,19.53
2023-01-17T03:41:57.115Z,19.47
2023-01-17T03:44:59.200Z,19.60
2023-01-17T03:48:01.455Z,19.07
2023-01-17T03:51:03.517Z,18.87
2023-01-17T03:54:05.947Z,18.90
2023-01-17T03:57:08.636Z,17.93
2023-01-17T04:00:11.470Z,18.27
2023-01-17T04:03:13.450Z,17.67
2023-01-17T04:06:15.728Z,18.13
2023-01-17T04:09:17.694Z,17.13
2023-01-17T04:12:20.039Z,17.30
2023-01-17T04:15:22.042Z,17.83
2023-01-17T04:18:25.006Z,17.23
2023-01-17T04:21:27.012Z,16.73
2023-01-17T04:24:29.255Z,17.50
2023-01-17T04:27:31.304Z,17.40
2023-01-17T04:30:33.918Z,17.13
2023-01-17T04:33:36.007Z,17.53
2023-01-17T04:36:38.239Z,17.20
2023-01-17T04:39:40.236Z,17.13
2023-01-17T04:42:45.391Z,17.30
2023-01-17T04:45:47.396Z,16.53
2023-01-17T04:48:49.648Z,21.83
2023-01-17T04:51:51.708Z,17.10
2023-01-17T04:54:53.991Z,18.67
2023-01-17T04:57:56.164Z,18.57
2023-01-17T05:01:04.081Z,17.13
2023-01-17T05:04:06.189Z,17.50
2023-01-17T05:07:08.620Z,17.40
2023-01-17T05:10:11.242Z,17.53
2023-01-17T05:13:13.825Z,17.30
2023-01-17T05:16:19.222Z,16.83
2023-01-17T05:19:22.624Z,16.80
2023-01-17T05:22:24.559Z,15.47
2023-01-17T05:25:30.139Z,17.23
2023-01-17T05:28:32.102Z,16.80
2023-01-17T05:31:34.445Z,15.73
2023-01-17T05:34:36.411Z,15.43
2023-01-17T05:37:38.796Z,14.97
2023-01-17T05:40:40.774Z,15.63
2023-01-17T05:43:43.036Z,15.40
2023-01-17T05:46:45.121Z,14.93
2023-01-17T05:49:47.377Z,15.63
2023-01-17T05:52:52.772Z,14.87
2023-01-17T05:55:55.512Z,13.87
2023-01-17T05:58:57.464Z,13.83
2023-01-17T06:01:59.726Z,13.70
2023-01-17T06:05:03.450Z,12.53
2023-01-17T06:08:06.178Z,13.27
2023-01-17T06:11:08.196Z,13.20
2023-01-17T06:14:10.588Z,12.83
2023-01-17T06:17:12.815Z,12.07
2023-01-17T06:20:15.052Z,11.10
2023-01-17T06:23:17.111Z,10.97
2023-01-17T06:26:19.697Z,10.40
2023-01-17T06:29:21.729Z,11.27
2023-01-17T06:32:24.105Z,10.77
2023-01-17T06:35:26.117Z,10.33
2023-01-17T06:38:29.883Z,11.30
2023-01-17T06:41:32.024Z,10.77
2023-01-17T06:44:34.339Z,9.80
2023-01-17T06:47:39.766Z,10.77
2023-01-17T06:50:41.998Z,10.00
2023-01-17T06:53:44.181Z,11.10
2023-01-17T06:56:46.434Z,10.20
2023-01-17T06:59:48.618Z,11.90
2023-01-17T07:02:51.541Z,10.30
2023-01-17T07:05:56.335Z,12.20
2023-01-17T07:08:59.095Z,10.33
2023-01-17T07:12:02.054Z,11.20
2023-01-17T07:15:05.264Z,10.57
2023-01-17T07:18:07.701Z,11.57
2023-01-17T07:21:19.049Z,8.73
2023-01-17T07:24:21.691Z,8.70
2023-01-17T07:27:30.246Z,8.13
2023-01-17T07:30:32.514Z,8.07
2023-01-17T07:33:35.377Z,8.63
2023-01-17T07:36:37.625Z,9.20
2023-01-17T07:39:39.863Z,9.10
2023-01-17T07:42:41.913Z,7.93
2023-01-17T07:45:51.490Z,7.43
2023-01-17T07:48:53.778Z,7.67
2023-01-17T07:51:56.056Z,8.13
2023-01-17T07:54:58.006Z,7.97
2023-01-17T07:58:02.803Z,8.00
2023-01-17T08:01:07.436Z,8.27
2023-01-17T08:04:10.406Z,7.40
2023-01-17T08:07:14.047Z,8.33
2023-01-17T08:10:18.080Z,7.90
2023-01-17T08:13:22.041Z,12.67
2023-01-17T08:16:28.622Z,14.30
2023-01-17T08:19:30.704Z,9.07
2023-01-17T08:22:33.143Z,8.50
2023-01-17T08:25:35.432Z,7.00
2023-01-17T08:28:37.791Z,9.17
2023-01-17T08:31:40.964Z,5.97
2023-01-17T08:34:43.318Z,5.90
2023-01-17T08:37:45.618Z,6.60
2023-01-17T08:40:47.884Z,5.40
2023-01-17T08:43:51.960Z,6.33
2023-01-17T08:46:54.231Z,6.43
2023-01-17T08:49:56.203Z,6.83
2023-01-17T08:53:01.107Z,9.80
2023-01-17T08:56:05.357Z,8.77
2023-01-17T08:59:07.710Z,7.60
2023-01-17T09:02:15.368Z,8.13
2023-01-17T09:05:17.677Z,5.70
2023-01-17T09:08:19.766Z,7.40
2023-01-17T09:11:22.170Z,6.00
2023-01-17T09:14:24.416Z,5.50
2023-01-17T09:17:26.770Z,15.37
2023-01-17T09:20:30.798Z,8.30
2023-01-17T09:23:33.187Z,6.93
2023-01-17T09:26:35.517Z,5.63
2023-01-17T09:29:37.839Z,7.23
2023-01-17T09:32:39.893Z,8.63
2023-01-17T09:35:42.351Z,8.07
2023-01-17T09:38:44.659Z,5.60
2023-01-17T09:42:16.889Z,6.70
2023-01-17T09:45:20.369Z,11.37
2023-01-17T09:48:39.139Z,8.60
2023-01-17T09:51:42.615Z,11.87
2023-01-17T09:54:48.043Z,18.20
2023-01-17T09:58:08.568Z,9.97
2023-01-17T10:01:12.304Z,5.67
2023-01-17T10:04:32.814Z,6.80
2023-01-17T10:07:50.115Z,4.27
2023-01-17T10:11:06.243Z,4.50
2023-01-17T10:14:23.501Z,3.57
2023-01-17T10:18:03.001Z,4.43
2023-01-17T10:21:52.348Z,4.13
2023-01-17T10:24:57.209Z,5.10
2023-01-17T10:28:04.972Z,10.03
2023-01-17T10:31:22.181Z,3.50
2023-01-17T10:34:49.371Z,3.30
2023-01-17T10:37:57.838Z,3.20
2023-01-17T10:41:08.880Z,2.97
2023-01-17T10:44:16.043Z,2.90
2023-01-17T10:47:23.490Z,3.27
2023-01-17T10:50:28.521Z,3.00
2023-01-17T10:53:39.855Z,2.80
2023-01-17T10:56:42.012Z,2.70
2023-01-17T10:59:44.496Z,2.37
2023-01-17T11:02:50.830Z,3.30
2023-01-17T11:06:18.099Z,5.07
2023-01-17T11:09:20.712Z,6.10
2023-01-17T11:12:44.953Z,3.60
2023-01-17T11:15:50.528Z,2.83
2023-01-17T11:19:21.652Z,3.20
2023-01-17T11:22:24.930Z,3.87
2023-01-17T11:25:28.695Z,3.10
2023-01-17T11:28:33.323Z,3.93
2023-01-17T11:31:35.614Z,2.17
2023-01-17T11:34:38.455Z,2.60
2023-01-17T11:37:52.169Z,2.87
2023-01-17T11:41:14.189Z,3.07
2023-01-17T11:44:24.682Z,2.87
2023-01-17T11:47:26.690Z,3.53
2023-01-17T11:50:29.274Z,6.20
2023-01-17T11:53:40.508Z,4.60
2023-01-17T11:56:46.096Z,4.13
2023-01-17T11:59:48.515Z,2.63
2023-01-17T12:02:53.915Z,2.43
2023-01-17T12:06:05.557Z,3.10
2023-01-17T12:09:30.030Z,2.67
2023-01-17T12:13:01.610Z,3.37
2023-01-17T12:16:28.898Z,2.77
2023-01-17T12:19:38.871Z,3.87
2023-01-17T12:23:25.692Z,5.67
2023-01-17T12:27:06.429Z,3.63
2023-01-17T12:30:38.175Z,3.50
2023-01-17T12:33:55.104Z,3.90
2023-01-17T12:37:06.932Z,3.23
2023-01-17T12:40:30.591Z,2.70
2023-01-17T12:43:43.320Z,2.87
2023-01-17T12:46:59.419Z,2.70
2023-01-17T12:50:31.197Z,2.80
2023-01-17T12:53:59.435Z,2.97
2023-01-17T12:57:23.244Z,2.73
2023-01-17T13:00:29.770Z,2.77
2023-01-17T13:03:57.932Z,2.97
2023-01-17T13:07:00.177Z,3.00
2023-01-17T13:10:08.442Z,2.70
2023-01-17T13:13:30.596Z,2.77
2023-01-17T13:16:42.974Z,2.10
2023-01-17T13:20:00.165Z,2.93
2023-01-17T13:23:12.749Z,2.00
2023-01-17T13:26:27.396Z,2.07
2023-01-17T13:29:48.539Z,2.07
2023-01-17T13:33:08.384Z,2.00
2023-01-17T13:36:16.785Z,1.73
2023-01-17T13:39:29.630Z,2.33
2023-01-17T13:42:41.467Z,2.13
2023-01-17T13:45:59.383Z,2.50
2023-01-17T13:49:42.351Z,3.10
2023-01-17T13:52:44.442Z,3.10
2023-01-17T13:55:59.120Z,2.53
2023-01-17T13:59:03.277Z,3.97
2023-01-17T14:02:31.534Z,3.20
2023-01-17T14:05:39.619Z,3.43
2023-01-17T14:08:45.441Z,3.00
2023-01-17T14:12:10.475Z,3.30
2023-01-17T14:15:25.615Z,2.83
2023-01-17T14:18:48.407Z,2.90
2023-01-17T14:21:50.953Z,5.77
2023-01-17T14:25:11.663Z,4.47
2023-01-17T14:28:32.532Z,4.57
2023-01-17T14:31:34.605Z,3.27
2023-01-17T14:34:37.480Z,3.07
2023-01-17T14:37:52.727Z,2.60
2023-01-17T14:41:20.190Z,3.00
2023-01-17T14:44:22.733Z,2.90
2023-01-17T14:47:26.573Z,2.53
2023-01-17T14:50:35.296Z,2.20
2023-01-17T14:53:37.666Z,2.40
2023-01-17T14:56:39.796Z,3.00
2023-01-17T14:59:42.265Z,3.43
2023-01-17T15:02:45.110Z,2.60
2023-01-17T15:05:50.926Z,4.57
2023-01-17T15:08:55.664Z,4.73
2023-01-17T15:11:58.373Z,5.17
2023-01-17T15:15:02.095Z,7.70
2023-01-17T15:18:19.677Z,9.87
2023-01-17T15:21:24.956Z,9.30
2023-01-17T15:24:34.410Z,8.03
2023-01-17T15:27:38.091Z,7.87
2023-01-17T15:31:03.629Z,8.47
2023-01-17T15:34:21.147Z,8.70
2023-01-17T15:37:30.950Z,10.67
2023-01-17T15:40:33.212Z,11.70
2023-01-17T15:43:35.970Z,8.30
2023-01-17T15:46:43.416Z,8.40
2023-01-17T15:49:51.994Z,11.07
2023-01-17T15:53:05.608Z,10.43
2023-01-17T15:56:24.260Z,9.40
2023-01-17T15:59:48.275Z,9.47
2023-01-17T16:02:58.951Z,10.90
2023-01-17T16:06:02.966Z,11.43
2023-01-17T16:09:24.888Z,10.60
2023-01-17T16:12:26.884Z,11.40
2023-01-17T16:15:30.213Z,11.67
2023-01-17T16:18:32.200Z,13.60
2023-01-17T16:21:34.628Z,11.10
2023-01-17T16:24:36.724Z,10.37
2023-01-17T16:27:41.416Z,9.80
2023-01-17T16:30:45.059Z,9.87
2023-01-17T16:33:49.825Z,10.47
2023-01-17T16:36:54.935Z,11.13
2023-01-17T16:39:57.254Z,9.93
2023-01-17T16:43:00.433Z,9.73
2023-01-17T16:46:02.987Z,18.93
2023-01-17T16:49:06.145Z,13.63
2023-01-17T16:52:08.395Z,19.93
2023-01-17T16:55:13.306Z,17.30
2023-01-17T16:58:16.778Z,16.77
2023-01-17T17:01:21.286Z,16.37
2023-01-17T17:04:24.115Z,15.33
2023-01-17T17:07:26.195Z,18.03
2023-01-17T17:10:28.565Z,17.57
2023-01-17T17:13:30.554Z,17.47
2023-01-17T17:16:33.935Z,17.47
2023-01-17T17:19:36.151Z,17.70
2023-01-17T17:22:39.816Z,14.77
2023-01-17T17:25:41.776Z,16.03
2023-01-17T17:28:44.008Z,15.20
2023-01-17T17:31:46.216Z,17.97
2023-01-17T17:34:50.673Z,18.53
2023-01-17T17:37:52.928Z,16.67
2023-01-17T17:40:55.447Z,18.70
2023-01-17T17:43:59.623Z,23.77
2023-01-17T17:47:02.219Z,24.67
2023-01-17T17:50:04.471Z,20.90
2023-01-17T17:53:07.283Z,22.27
2023-01-17T17:56:09.587Z,20.07
2023-01-17T17:59:13.913Z,20.27
2023-01-17T18:02:16.460Z,21.50
2023-01-17T18:05:18.767Z,26.43
2023-01-17T18:08:21.644Z,23.23
2023-01-17T18:11:26.110Z,24.00
2023-01-17T18:14:28.274Z,22.00
2023-01-17T18:17:30.583Z,19.23
2023-01-17T18:20:33.062Z,21.20
2023-01-17T18:23:38.664Z,22.87
2023-01-17T18:26:47.112Z,20.43
2023-01-17T18:29:49.576Z,25.23
2023-01-17T18:32:51.549Z,28.40
2023-01-17T18:35:55.710Z,28.47
2023-01-17T18:38:58.048Z,29.20
2023-01-17T18:42:00.607Z,25.63
2023-01-17T18:45:02.640Z,25.40
2023-01-17T18:48:05.610Z,25.87
2023-01-17T18:51:13.510Z,24.80
2023-01-17T18:54:16.483Z,34.00
2023-01-17T18:57:18.473Z,30.93
2023-01-17T19:00:21.419Z,40.47
2023-01-17T19:03:31.474Z,35.90
2023-01-17T19:06:37.303Z,29.80
2023-01-17T19:09:39.308Z,21.57
2023-01-17T19:12:41.762Z,21.70
2023-01-17T19:15:43.736Z,24.43
2023-01-17T19:18:46.939Z,20.00
2023-01-17T19:21:52.013Z,19.27
2023-01-17T19:24:54.957Z,18.97
2023-01-17T19:27:58.330Z,20.13
2023-01-17T19:31:27.340Z,19.80
2023-01-17T19:34:29.463Z,27.13
2023-01-17T19:37:31.774Z,19.33
2023-01-17T19:40:33.826Z,20.50
2023-01-17T19:43:36.539Z,19.77
2023-01-17T19:46:39.070Z,23.80
2023-01-17T19:49:42.528Z,21.80
2023-01-17T19:52:44.642Z,25.70
2023-01-17T19:55:47.066Z,22.90
2023-01-17T19:58:49.980Z,24.43
2023-01-17T20:01:52.390Z,22.47
2023-01-17T20:04:54.681Z,20.93
2023-01-17T20:07:57.405Z,19.47
2023-01-17T20:11:14.819Z,19.40
2023-01-17T20:14:17.387Z,24.33
2023-01-17T20:17:19.432Z,15.67
2023-01-17T20:20:22.780Z,14.97
2023-01-17T20:23:24.948Z,14.13
2023-01-17T20:26:36.093Z,15.20
2023-01-17T20:29:40.615Z,12.47
2023-01-17T20:32:42.929Z,12.00
2023-01-17T20:35:45.143Z,11.93
2023-01-17T20:38:48.725Z,18.47
2023-01-17T20:41:51.586Z,14.63
2023-01-17T20:44:53.905Z,16.17
2023-01-17T20:47:56.521Z,15.50
2023-01-17T20:51:10.665Z,15.03
2023-01-17T20:54:15.959Z,17.60
2023-01-17T20:57:18.260Z,18.17
2023-01-17T21:00:20.742Z,17.47
2023-01-17T21:03:25.069Z,19.37
2023-01-17T21:06:27.307Z,17.43
2023-01-17T21:09:29.836Z,17.43
2023-01-17T21:12:31.860Z,18.93
2023-01-17T21:15:34.116Z,18.77
2023-01-17T21:18:36.604Z,19.07
2023-01-17T21:21:38.964Z,20.57
2023-01-17T21:24:41.076Z,22.97
2023-01-17T21:27:43.481Z,20.47
2023-01-17T21:30:46.065Z,24.13
2023-01-17T21:33:49.329Z,19.87
2023-01-17T21:36:52.277Z,23.93
2023-01-17T21:39:56.869Z,21.80
2023-01-17T21:42:58.938Z,20.13
2023-01-17T21:46:05.089Z,21.03
2023-01-17T21:49:10.671Z,24.17
2023-01-17T21:52:13.080Z,24.23
2023-01-17T21:55:35.054Z,29.77
2023-01-17T21:58:43.416Z,26.53
2023-01-17T22:01:45.509Z,36.97
2023-01-17T22:04:47.889Z,33.47
2023-01-17T22:08:11.113Z,35.30
2023-01-17T22:11:20.124Z,22.40
2023-01-17T22:14:22.280Z,26.07
2023-01-17T22:17:24.600Z,30.30
2023-01-17T22:20:26.739Z,37.23
2023-01-17T22:23:29.040Z,31.93
2023-01-17T22:26:31.758Z,37.73
2023-01-17T22:29:36.335Z,35.60
2023-01-17T22:32:38.866Z,25.50
2023-01-17T22:35:41.226Z,30.07
2023-01-17T22:38:43.759Z,43.80
2023-01-17T22:41:46.369Z,35.23
2023-01-17T22:44:48.572Z,32.93
2023-01-17T22:47:50.805Z,34.30
2023-01-17T22:50:58.414Z,39.43
2023-01-17T22:54:01.290Z,37.93
2023-01-17T22:57:03.273Z,33.30
2023-01-17T23:00:14.401Z,30.83
2023-01-17T23:03:17.608Z,36.83
2023-01-17T23:06:24.888Z,34.13
2023-01-17T23:09:27.103Z,37.10
2023-01-17T23:12:29.480Z,34.60
2023-01-17T23:15:50.001Z,26.37
2023-01-17T23:19:10.989Z,25.47
2023-01-17T23:22:20.296Z,27.97
2023-01-17T23:25:22.899Z,26.60
2023-01-17T23:28:24.897Z,27.60
2023-01-17T23:31:27.222Z,28.60
2023-01-17T23:34:29.292Z,24.20
2023-01-17T23:37:50.326Z,30.07
2023-01-17T23:41:17.432Z,53.47
2023-01-17T23:44:19.724Z,39.53
2023-01-17T23:47:21.752Z,41.33
2023-01-17T23:50:24.061Z,25.33
2023-01-17T23:53:27.337Z,25.87
2023-01-17T23:56:29.608Z,26.57
2023-01-17T23:59:32.180Z,26.10
